Time;durP1;ratioP1;P1;durP2;ratioP2;P2;SDS_P1;SDS_P2;PMS_P1;PMS_P2;Temp;Humidity;BMP_temperature;BMP_pressure;BME280_temperature;BME280_humidity;BME280_pressure;Samples;Min_cycle;Max_cycle;Signal;HPM_P1;HPM_P2
2022/06/29 00:01:59;;;;;;;;;;;19.70;44.20;;;;;;6285506;22;20231;-92
2022/06/29 00:04:24;;;;;;;;;;;19.60;44.30;;;;;;6285159;22;19937;-92
2022/06/29 00:06:50;;;;;;;;;;;19.60;44.30;;;;;;6284467;22;19911;-92
2022/06/29 00:09:15;;;;;;;;;;;19.50;44.40;;;;;;6258435;22;19926;-92
2022/06/29 00:11:41;;;;;;;;;;;19.40;44.50;;;;;;6313318;22;19906;-91
2022/06/29 00:14:06;;;;;;;;;;;19.40;44.50;;;;;;6286064;22;19918;-92
2022/06/29 00:16:32;;;;;;;;;;;19.30;44.70;;;;;;6284684;22;20248;-92
2022/06/29 00:18:57;;;;;;;;;;;19.20;44.80;;;;;;6286097;22;19914;-92
2022/06/29 00:21:23;;;;;;;;;;;19.20;44.90;;;;;;6286608;22;20000;-92
2022/06/29 00:23:52;;;;;;;;;;;19.10;45.00;;;;;;6286735;22;19911;-93
2022/06/29 00:26:17;;;;;;;;;;;19.10;45.30;;;;;;6287134;22;19986;-92
2022/06/29 00:28:45;;;;;;;;;;;19.10;45.40;;;;;;6288127;22;19911;-93
2022/06/29 00:31:12;;;;;;;;;;;19.00;45.50;;;;;;6291649;22;19956;-92
2022/06/29 00:33:38;;;;;;;;;;;18.90;45.60;;;;;;6293757;22;19918;-92
2022/06/29 00:36:10;;;;;;;;;;;18.90;45.70;;;;;;6291937;22;19922;-92
2022/06/29 00:38:35;;;;;;;;;;;18.80;45.70;;;;;;6270970;22;19949;-93
2022/06/29 00:41:10;;;;;;;;;;;18.80;45.90;;;;;;6287043;22;19903;-93
2022/06/29 00:43:42;;;;;;;;;;;18.80;46.00;;;;;;6287179;22;19914;-91
2022/06/29 00:46:09;;;;;;;;;;;18.80;46.10;;;;;;6286965;22;19911;-91
2022/06/29 00:48:35;;;;;;;;;;;18.70;46.20;;;;;;6287314;22;19907;-91
2022/06/29 00:51:02;;;;;;;;;;;18.70;46.20;;;;;;6286576;22;19907;-91
2022/06/29 00:53:32;;;;;;;;;;;18.70;46.30;;;;;;6286478;22;19965;-91
2022/06/29 00:55:59;;;;;;;;;;;18.60;46.40;;;;;;6312871;22;19919;-93
2022/06/29 00:58:27;;;;;;;;;;;18.60;46.50;;;;;;6261351;22;20335;-91
2022/06/29 01:00:53;;;;;;;;;;;18.50;46.50;;;;;;6287292;22;20243;-91
2022/06/29 01:03:18;;;;;;;;;;;18.50;46.60;;;;;;6286697;22;19907;-91
2022/06/29 01:05:44;;;;;;;;;;;18.50;46.80;;;;;;6287351;22;19930;-92
2022/06/29 01:08:11;;;;;;;;;;;18.40;46.90;;;;;;6286911;22;20238;-92
2022/06/29 01:10:36;;;;;;;;;;;18.40;47.10;;;;;;6285403;22;19907;-92
2022/06/29 01:13:02;;;;;;;;;;;18.30;47.30;;;;;;6313810;22;19949;-91
2022/06/29 01:15:27;;;;;;;;;;;18.30;47.40;;;;;;6313768;22;19922;-91
2022/06/29 01:17:53;;;;;;;;;;;18.30;47.50;;;;;;6285643;22;20261;-91
2022/06/29 01:20:18;;;;;;;;;;;18.30;47.60;;;;;;6285898;22;19961;-91
2022/06/29 01:22:44;;;;;;;;;;;18.20;47.60;;;;;;6286321;22;19891;-91
2022/06/29 01:25:10;;;;;;;;;;;18.20;47.80;;;;;;6284890;22;19907;-90
2022/06/29 01:27:37;;;;;;;;;;;18.20;48.20;;;;;;6283936;22;19907;-91
2022/06/29 01:30:04;;;;;;;;;;;18.10;48.10;;;;;;6312687;22;19918;-90
2022/06/29 01:32:30;;;;;;;;;;;18.10;48.10;;;;;;6285564;22;19990;-91
2022/06/29 01:34:56;;;;;;;;;;;18.10;48.10;;;;;;6312519;22;19911;-90
2022/06/29 01:37:21;;;;;;;;;;;18.00;48.20;;;;;;6285019;22;20376;-91
2022/06/29 01:39:47;;;;;;;;;;;18.00;48.30;;;;;;6312804;22;19922;-94
2022/06/29 01:42:12;;;;;;;;;;;17.90;48.60;;;;;;6285228;22;19903;-91
2022/06/29 01:44:38;;;;;;;;;;;17.90;48.70;;;;;;6285190;22;19911;-91
2022/06/29 01:47:03;;;;;;;;;;;17.80;48.70;;;;;;6285877;22;19911;-91
2022/06/29 01:49:29;;;;;;;;;;;17.80;48.70;;;;;;6285210;22;19918;-90
2022/06/29 01:51:55;;;;;;;;;;;17.80;48.80;;;;;;6285944;22;20258;-91
2022/06/29 01:54:22;;;;;;;;;;;17.80;48.80;;;;;;6284592;22;19891;-91
2022/06/29 01:56:47;;;;;;;;;;;17.80;48.80;;;;;;6284878;22;20320;-91
2022/06/29 01:59:13;;;;;;;;;;;17.80;48.90;;;;;;6258817;22;19907;-91
2022/06/29 02:01:38;;;;;;;;;;;17.70;49.00;;;;;;6285188;22;19918;-91
2022/06/29 02:04:04;;;;;;;;;;;17.70;49.10;;;;;;6313508;22;19929;-91
2022/06/29 02:06:30;;;;;;;;;;;17.70;49.50;;;;;;6285081;22;20291;-91
2022/06/29 02:08:55;;;;;;;;;;;17.80;50.00;;;;;;6284782;22;19903;-90
2022/06/29 02:11:23;;;;;;;;;;;17.80;49.70;;;;;;6284243;22;20293;-91
2022/06/29 02:13:49;;;;;;;;;;;17.80;49.60;;;;;;6284800;22;19915;-93
2022/06/29 02:16:14;;;;;;;;;;;17.80;49.70;;;;;;6287114;22;19910;-91
2022/06/29 02:18:40;;;;;;;;;;;17.80;50.20;;;;;;6287164;22;19918;-91
2022/06/29 02:21:05;;;;;;;;;;;17.80;50.40;;;;;;6287167;22;19907;-92
2022/06/29 02:23:34;;;;;;;;;;;17.80;50.40;;;;;;6288062;22;19950;-92
2022/06/29 02:26:00;;;;;;;;;;;17.80;51.00;;;;;;6288261;22;19956;-91
2022/06/29 02:28:25;;;;;;;;;;;17.90;50.60;;;;;;6287214;22;19907;-90
2022/06/29 02:36:19;;;;;;;;;;;17.90;50.50;;;;;;6295815;22;19953;-91
2022/06/29 02:38:45;;;;;;;;;;;17.90;50.60;;;;;;6288287;22;19911;-92
2022/06/29 02:41:10;;;;;;;;;;;17.90;50.60;;;;;;6312937;22;19903;-92
2022/06/29 02:43:37;;;;;;;;;;;18.00;50.50;;;;;;6288406;22;19911;-91
2022/06/29 02:46:03;;;;;;;;;;;18.00;50.50;;;;;;6287087;22;20342;-92
2022/06/29 02:48:28;;;;;;;;;;;18.00;50.50;;;;;;6285832;22;19946;-92
2022/06/29 02:50:54;;;;;;;;;;;18.00;50.40;;;;;;6288370;22;19953;-92
2022/06/29 02:53:19;;;;;;;;;;;18.10;50.40;;;;;;6284679;22;19907;-91
2022/06/29 02:55:45;;;;;;;;;;;18.10;50.60;;;;;;6284555;22;19919;-91
2022/06/29 02:58:13;;;;;;;;;;;18.10;50.50;;;;;;6284715;22;19914;-91
2022/06/29 03:00:39;;;;;;;;;;;18.20;50.50;;;;;;6284373;22;19922;-91
2022/06/29 03:03:04;;;;;;;;;;;18.20;50.40;;;;;;6285512;22;19907;-92
2022/06/29 03:05:30;;;;;;;;;;;18.30;50.40;;;;;;6316294;22;19914;-91
2022/06/29 03:07:58;;;;;;;;;;;18.30;50.50;;;;;;6287634;22;20258;-91
2022/06/29 03:10:24;;;;;;;;;;;18.30;50.50;;;;;;6289443;22;20278;-90
2022/06/29 03:12:49;;;;;;;;;;;18.30;50.40;;;;;;6289253;22;19918;-92
2022/06/29 03:15:15;;;;;;;;;;;18.30;50.70;;;;;;6286615;22;19909;-92
2022/06/29 03:17:40;;;;;;;;;;;18.40;50.70;;;;;;6284105;22;19915;-92
2022/06/29 03:20:06;;;;;;;;;;;18.40;50.70;;;;;;6285611;22;19926;-92
2022/06/29 03:22:33;;;;;;;;;;;18.40;50.80;;;;;;6313418;22;19986;-92
2022/06/29 03:24:58;;;;;;;;;;;18.40;50.90;;;;;;6285001;22;19982;-91
2022/06/29 03:27:24;;;;;;;;;;;18.50;51.00;;;;;;6311919;22;19911;-92
2022/06/29 03:29:49;;;;;;;;;;;18.50;51.00;;;;;;6283860;22;19957;-91
2022/06/29 03:32:15;;;;;;;;;;;18.50;50.90;;;;;;6284251;22;19961;-92
2022/06/29 03:34:40;;;;;;;;;;;18.50;50.80;;;;;;6283684;22;19997;-92
2022/06/29 03:37:06;;;;;;;;;;;18.60;50.80;;;;;;6283723;22;19972;-91
2022/06/29 03:39:31;;;;;;;;;;;18.60;51.00;;;;;;6284793;22;19915;-91
2022/06/29 03:41:56;;;;;;;;;;;18.70;51.20;;;;;;6284216;22;20208;-91
2022/06/29 03:44:22;;;;;;;;;;;18.80;51.50;;;;;;6284451;22;19907;-91
2022/06/29 03:46:49;;;;;;;;;;;19.00;51.90;;;;;;6312777;22;19907;-91
2022/06/29 03:49:14;;;;;;;;;;;19.20;52.30;;;;;;6313104;22;19956;-91
2022/06/29 03:51:40;;;;;;;;;;;19.40;52.60;;;;;;6287281;22;20290;-92
2022/06/29 03:54:05;;;;;;;;;;;19.70;52.30;;;;;;6287147;22;19911;-91
2022/06/29 03:56:32;;;;;;;;;;;19.80;51.90;;;;;;6325108;22;19917;-92
2022/06/29 03:58:58;;;;;;;;;;;19.90;51.60;;;;;;6289309;22;19975;-91
2022/06/29 04:01:24;;;;;;;;;;;20.10;51.40;;;;;;6286310;22;20304;-91
2022/06/29 04:03:53;;;;;;;;;;;20.20;51.30;;;;;;6286035;22;19911;-90
2022/06/29 04:06:19;;;;;;;;;;;20.30;51.20;;;;;;6287058;22;19907;-91
2022/06/29 04:08:45;;;;;;;;;;;20.40;51.40;;;;;;6313597;22;19907;-91
2022/06/29 04:13:55;;;;;;;;;;;21.00;52.10;;;;;;6314921;22;19956;-92
2022/06/29 04:16:21;;;;;;;;;;;21.30;52.40;;;;;;6284399;22;19934;-92
2022/06/29 04:18:46;;;;;;;;;;;21.80;52.50;;;;;;6286598;22;19911;-92
2022/06/29 04:21:12;;;;;;;;;;;22.20;52.30;;;;;;6287819;22;19929;-92
2022/06/29 04:23:37;;;;;;;;;;;22.50;52.00;;;;;;6312971;22;19933;-93
2022/06/29 04:26:29;;;;;;;;;;;23.00;51.60;;;;;;6284598;22;19990;-92
2022/06/29 04:32:09;;;;;;;;;;;23.60;50.10;;;;;;6158135;23;19936;-92
2022/06/29 04:34:35;;;;;;;;;;;23.90;49.80;;;;;;6285201;22;19903;-91
2022/06/29 04:37:00;;;;;;;;;;;24.20;49.50;;;;;;6287028;22;19999;-91
2022/06/29 04:39:26;;;;;;;;;;;24.50;49.20;;;;;;6285697;22;19976;-92
2022/06/29 04:41:55;;;;;;;;;;;24.80;49.30;;;;;;6285277;22;19907;-91
2022/06/29 04:44:20;;;;;;;;;;;25.30;48.80;;;;;;6285967;22;19907;-92
2022/06/29 04:46:46;;;;;;;;;;;25.80;48.30;;;;;;6285745;22;20231;-91
2022/06/29 04:49:11;;;;;;;;;;;26.20;47.70;;;;;;6286575;22;19911;-92
2022/06/29 04:51:37;;;;;;;;;;;26.50;46.70;;;;;;6286586;22;19911;-92
2022/06/29 04:54:03;;;;;;;;;;;26.90;45.40;;;;;;6313530;22;19934;-92
2022/06/29 04:56:33;;;;;;;;;;;27.20;44.40;;;;;;6287016;22;19915;-92
2022/06/29 04:58:59;;;;;;;;;;;27.50;44.60;;;;;;6285959;22;20315;-92
2022/06/29 05:01:26;;;;;;;;;;;27.80;44.50;;;;;;6286758;22;20276;-92
2022/06/29 05:03:54;;;;;;;;;;;28.30;44.40;;;;;;6259934;22;19912;-90
2022/06/29 05:06:23;;;;;;;;;;;28.80;43.50;;;;;;6285942;22;19922;-91
2022/06/29 05:08:49;;;;;;;;;;;29.20;42.70;;;;;;6284962;22;19961;-91
2022/06/29 05:11:15;;;;;;;;;;;29.70;42.30;;;;;;6285708;22;19907;-92
2022/06/29 05:13:41;;;;;;;;;;;30.20;41.80;;;;;;6284985;22;19907;-91
2022/06/29 05:16:07;;;;;;;;;;;30.60;41.00;;;;;;6285128;22;19964;-91
2022/06/29 05:18:33;;;;;;;;;;;31.10;39.90;;;;;;6285907;22;19934;-91
2022/06/29 05:20:59;;;;;;;;;;;31.40;38.10;;;;;;6312289;22;19903;-91
2022/06/29 05:23:25;;;;;;;;;;;31.50;36.80;;;;;;6259596;22;19960;-91
2022/06/29 05:25:51;;;;;;;;;;;31.50;35.90;;;;;;6285183;22;19945;-90
2022/06/29 05:28:17;;;;;;;;;;;31.60;35.30;;;;;;6285790;22;19911;-90
2022/06/29 05:30:42;;;;;;;;;;;31.60;34.50;;;;;;6285392;22;19907;-91
2022/06/29 05:33:08;;;;;;;;;;;31.50;34.30;;;;;;6285388;22;19911;-91
2022/06/29 05:35:33;;;;;;;;;;;31.40;34.30;;;;;;6286007;22;19934;-89
2022/06/29 05:41:19;;;;;;;;;;;31.30;34.50;;;;;;6158460;23;19911;-91
2022/06/29 05:43:49;;;;;;;;;;;31.20;34.60;;;;;;6273636;22;19939;-90
2022/06/29 05:46:15;;;;;;;;;;;31.20;34.20;;;;;;6284780;22;20004;-91
2022/06/29 05:48:40;;;;;;;;;;;31.20;34.10;;;;;;6286014;22;19911;-90
2022/06/29 05:51:06;;;;;;;;;;;31.30;34.30;;;;;;6284678;22;19903;-91
2022/06/29 05:53:32;;;;;;;;;;;31.40;34.30;;;;;;6312556;22;19958;-91
2022/06/29 05:55:57;;;;;;;;;;;31.50;34.40;;;;;;6284955;22;20318;-92
2022/06/29 05:58:23;;;;;;;;;;;31.80;34.80;;;;;;6283794;22;19916;-92
2022/06/29 06:00:48;;;;;;;;;;;32.10;34.30;;;;;;6283552;22;19957;-91
2022/06/29 06:03:14;;;;;;;;;;;32.30;33.40;;;;;;6284937;22;20266;-91
2022/06/29 06:05:40;;;;;;;;;;;32.50;33.00;;;;;;6284709;22;19941;-91
2022/06/29 06:08:06;;;;;;;;;;;32.50;32.50;;;;;;6311480;22;20044;-92
2022/06/29 06:10:31;;;;;;;;;;;32.70;32.70;;;;;;6285354;22;19907;-92
2022/06/29 06:12:57;;;;;;;;;;;33.00;32.60;;;;;;6285058;22;20612;-92
2022/06/29 06:15:23;;;;;;;;;;;33.30;32.30;;;;;;6312404;22;20235;-89
2022/06/29 06:17:49;;;;;;;;;;;33.80;32.00;;;;;;6312915;22;19911;-91
2022/06/29 06:20:15;;;;;;;;;;;34.30;31.20;;;;;;6312357;22;19907;-91
2022/06/29 06:22:41;;;;;;;;;;;35.00;30.60;;;;;;6287935;22;19956;-93
2022/06/29 06:25:07;;;;;;;;;;;35.50;29.60;;;;;;6287939;22;19911;-89
2022/06/29 06:27:32;;;;;;;;;;;35.80;28.00;;;;;;6284911;22;19918;-90
2022/06/29 06:30:01;;;;;;;;;;;35.80;27.50;;;;;;6259547;22;19907;-90
2022/06/29 06:32:26;;;;;;;;;;;35.80;27.70;;;;;;6282970;22;19915;-90
2022/06/29 06:34:52;;;;;;;;;;;36.10;27.80;;;;;;6284929;22;19909;-91
2022/06/29 06:37:20;;;;;;;;;;;36.50;28.00;;;;;;6283482;22;19922;-91
2022/06/29 06:41:21;;;;;;;;;;;37.00;27.70;;;;;;6310372;22;19986;-92
2022/06/29 06:42:30;;;;;;;;;;;37.40;27.00;;;;;;6309833;22;19907;-91
2022/06/29 06:44:56;;;;;;;;;;;38.00;26.40;;;;;;6283741;22;19914;-92
2022/06/29 06:47:21;;;;;;;;;;;38.50;25.90;;;;;;6310628;22;19981;-92
2022/06/29 06:49:47;;;;;;;;;;;38.80;25.20;;;;;;6258422;22;19946;-92
2022/06/29 06:52:16;;;;;;;;;;;39.10;24.00;;;;;;6311265;22;19938;-91
2022/06/29 06:54:43;;;;;;;;;;;39.20;23.30;;;;;;6313229;22;19935;-92
2022/06/29 06:57:10;;;;;;;;;;;39.30;22.80;;;;;;6289306;22;19915;-91
2022/06/29 06:59:36;;;;;;;;;;;39.50;22.70;;;;;;6283817;22;19918;-91
2022/06/29 07:02:02;;;;;;;;;;;39.70;22.10;;;;;;6282371;22;20377;-91
2022/06/29 07:04:28;;;;;;;;;;;39.80;21.80;;;;;;6283320;22;19907;-91
2022/06/29 07:06:53;;;;;;;;;;;39.70;21.10;;;;;;6310242;22;19946;-91
2022/06/29 07:09:19;;;;;;;;;;;39.80;21.30;;;;;;6308806;22;19907;-91
2022/06/29 07:11:44;;;;;;;;;;;39.80;20.70;;;;;;6282139;22;19942;-91
2022/06/29 07:14:10;;;;;;;;;;;39.50;20.50;;;;;;6283891;22;19982;-90
2022/06/29 07:16:36;;;;;;;;;;;39.20;20.60;;;;;;6282513;22;19911;-90
2022/06/29 07:19:01;;;;;;;;;;;38.90;20.70;;;;;;6310788;22;19915;-92
2022/06/29 07:21:27;;;;;;;;;;;38.60;20.90;;;;;;6282694;22;19911;-91
2022/06/29 07:23:53;;;;;;;;;;;38.20;21.00;;;;;;6283777;22;19964;-91
2022/06/29 07:26:18;;;;;;;;;;;37.80;21.30;;;;;;6283733;22;19907;-91
2022/06/29 07:28:44;;;;;;;;;;;37.70;21.90;;;;;;6310767;22;19914;-92
2022/06/29 07:31:11;;;;;;;;;;;37.80;22.40;;;;;;6284221;22;20243;-92
2022/06/29 07:33:37;;;;;;;;;;;38.00;22.30;;;;;;6283061;22;19937;-91
2022/06/29 07:36:03;;;;;;;;;;;38.30;21.70;;;;;;6283275;22;19895;-91
2022/06/29 07:38:30;;;;;;;;;;;38.50;21.40;;;;;;6282523;22;19911;-91
2022/06/29 07:40:58;;;;;;;;;;;38.60;21.40;;;;;;6282226;22;19903;-92
2022/06/29 07:43:24;;;;;;;;;;;38.80;21.50;;;;;;6285940;22;20545;-91
2022/06/29 07:45:49;;;;;;;;;;;39.10;21.60;;;;;;6284202;22;19907;-91
2022/06/29 07:48:15;;;;;;;;;;;39.30;21.30;;;;;;6284574;22;20422;-91
2022/06/29 07:50:40;;;;;;;;;;;39.60;21.20;;;;;;6310314;22;19930;-92
2022/06/29 07:53:06;;;;;;;;;;;39.90;20.80;;;;;;6283767;22;19919;-92
2022/06/29 07:55:31;;;;;;;;;;;40.20;20.20;;;;;;6282517;22;19923;-92
2022/06/29 07:57:57;;;;;;;;;;;40.40;20.00;;;;;;6283374;22;19999;-92
2022/06/29 08:00:22;;;;;;;;;;;40.40;19.60;;;;;;6311223;22;19965;-92
2022/06/29 08:02:48;;;;;;;;;;;40.70;19.80;;;;;;6283739;22;19981;-91
2022/06/29 08:05:13;;;;;;;;;;;40.70;19.50;;;;;;6283451;22;19903;-92
2022/06/29 08:07:39;;;;;;;;;;;40.80;19.50;;;;;;6283337;22;19891;-92
2022/06/29 08:10:08;;;;;;;;;;;40.80;19.60;;;;;;6284394;22;20274;-92
2022/06/29 08:12:35;;;;;;;;;;;40.80;19.70;;;;;;6282949;22;19917;-92
2022/06/29 08:15:06;;;;;;;;;;;40.80;19.50;;;;;;6308439;22;20022;-93
2022/06/29 08:17:32;;;;;;;;;;;40.70;19.70;;;;;;6309453;22;19926;-90
2022/06/29 08:20:00;;;;;;;;;;;40.70;19.80;;;;;;6255695;22;19911;-93
2022/06/29 08:22:26;;;;;;;;;;;40.70;19.80;;;;;;6308982;22;19907;-93
2022/06/29 08:24:51;;;;;;;;;;;40.40;19.90;;;;;;6280892;22;19907;-92
2022/06/29 08:27:20;;;;;;;;;;;40.30;20.10;;;;;;6308397;22;20338;-90
2022/06/29 08:29:45;;;;;;;;;;;40.20;20.40;;;;;;6281454;22;20336;-92
2022/06/29 08:32:11;;;;;;;;;;;40.10;20.60;;;;;;6256541;22;19923;-91
2022/06/29 08:34:39;;;;;;;;;;;40.10;20.80;;;;;;6282319;22;19914;-91
2022/06/29 08:37:05;;;;;;;;;;;39.90;20.90;;;;;;6283121;22;19915;-92
2022/06/29 08:39:30;;;;;;;;;;;39.60;21.10;;;;;;6283035;22;19907;-91
2022/06/29 08:41:57;;;;;;;;;;;39.20;21.40;;;;;;6309552;22;20534;-91
2022/06/29 08:44:23;;;;;;;;;;;38.80;21.90;;;;;;6308386;22;20331;-91
2022/06/29 08:46:48;;;;;;;;;;;38.60;22.40;;;;;;6283213;22;19911;-91
2022/06/29 08:49:14;;;;;;;;;;;38.30;22.90;;;;;;6283110;22;19907;-91
2022/06/29 08:51:40;;;;;;;;;;;38.20;23.20;;;;;;6284347;22;19927;-91
2022/06/29 08:54:06;;;;;;;;;;;38.10;23.30;;;;;;6282609;22;20224;-91
2022/06/29 08:56:32;;;;;;;;;;;38.10;23.50;;;;;;6309779;22;19926;-92
2022/06/29 08:59:00;;;;;;;;;;;37.90;23.50;;;;;;6282928;22;19951;-91
2022/06/29 09:01:27;;;;;;;;;;;37.70;23.80;;;;;;6282824;22;19910;-90
2022/06/29 09:03:52;;;;;;;;;;;37.50;24.20;;;;;;6281970;22;19911;-89
2022/06/29 09:06:18;;;;;;;;;;;37.50;24.40;;;;;;6310865;22;19910;-90
2022/06/29 09:08:43;;;;;;;;;;;37.40;24.40;;;;;;6284146;22;20028;-89
2022/06/29 09:11:28;;;;;;;;;;;37.40;24.40;;;;;;6282137;22;19903;-91
2022/06/29 09:14:12;;;;;;;;;;;37.30;24.60;;;;;;6256700;22;19911;-91
2022/06/29 09:16:54;;;;;;;;;;;37.30;24.60;;;;;;6282995;22;19985;-91
2022/06/29 09:19:21;;;;;;;;;;;37.30;24.60;;;;;;6283900;22;19953;-91
2022/06/29 09:21:47;;;;;;;;;;;37.20;24.50;;;;;;6282536;22;19942;-91
2022/06/29 09:27:43;;;;;;;;;;;37.10;25.00;;;;;;6139569;23;19932;-91
2022/06/29 09:30:22;;;;;;;;;;;36.90;25.00;;;;;;6279274;22;19930;-91
2022/06/29 09:33:03;;;;;;;;;;;36.80;25.30;;;;;;6280146;22;19929;-91
2022/06/29 09:35:38;;;;;;;;;;;;;;;;;;;;;
2022/06/29 09:38:21;;;;;;;;;;;36.70;25.50;;;;;;6309612;22;19982;-91
2022/06/29 09:44:40;;;;;;;;;;;36.30;25.80;;;;;;6041511;23;19918;-92
2022/06/29 09:47:07;;;;;;;;;;;36.00;26.20;;;;;;6016098;23;19914;-91
2022/06/29 09:49:34;;;;;;;;;;;35.90;26.30;;;;;;6136252;23;19912;-93
2022/06/29 09:52:00;;;;;;;;;;;35.80;26.50;;;;;;6209448;22;19911;-92
2022/06/29 09:54:30;;;;;;;;;;;35.80;26.60;;;;;;6309378;22;19948;-92
2022/06/29 09:56:56;;;;;;;;;;;35.80;26.80;;;;;;6284116;22;19914;-93
2022/06/29 10:02:51;;;;;;;;;;;35.80;26.80;;;;;;6311378;22;19897;-92
2022/06/29 10:05:20;;;;;;;;;;;35.70;26.90;;;;;;6284307;22;19907;-92
2022/06/29 10:07:47;;;;;;;;;;;35.60;27.00;;;;;;6282559;22;19918;-94
2022/06/29 10:10:14;;;;;;;;;;;35.60;27.20;;;;;;6256665;22;19990;-92
2022/06/29 10:15:46;;;;;;;;;;;35.60;27.30;;;;;;6310365;22;19965;-93
2022/06/29 10:18:17;;;;;;;;;;;35.60;27.30;;;;;;6309417;22;19914;-93
2022/06/29 10:20:46;;;;;;;;;;;35.40;27.40;;;;;;6281974;22;20331;-92
2022/06/29 10:23:30;;;;;;;;;;;35.30;27.50;;;;;;6280544;22;19956;-92
2022/06/29 10:25:56;;;;;;;;;;;35.30;27.60;;;;;;6282063;22;19922;-92
2022/06/29 10:28:23;;;;;;;;;;;35.20;27.70;;;;;;6282969;22;19906;-92
2022/06/29 10:31:09;;;;;;;;;;;35.20;27.80;;;;;;6245128;23;19927;-92
2022/06/29 10:33:37;;;;;;;;;;;35.20;27.90;;;;;;6246186;23;19911;-92
2022/06/29 10:36:04;;;;;;;;;;;35.10;27.90;;;;;;6219120;23;19916;-92
2022/06/29 10:39:28;;;;;;;;;;;35.00;28.00;;;;;;6185216;23;19975;-92
2022/06/29 10:44:56;;;;;;;;;;;35.00;28.10;;;;;;6183149;23;20325;-93
2022/06/29 10:47:27;;;;;;;;;;;35.00;28.30;;;;;;6159196;23;19978;-92
2022/06/29 10:50:11;;;;;;;;;;;35.10;28.30;;;;;;6183541;23;19909;-93
2022/06/29 10:52:37;;;;;;;;;;;35.20;28.30;;;;;;6182729;23;19950;-92
2022/06/29 10:55:03;;;;;;;;;;;35.20;28.10;;;;;;6182884;23;19917;-92
2022/06/29 10:57:33;;;;;;;;;;;35.20;28.10;;;;;;6183340;23;19916;-92
2022/06/29 10:59:58;;;;;;;;;;;35.10;28.10;;;;;;6183783;23;20631;-92
2022/06/29 11:02:24;;;;;;;;;;;35.10;28.10;;;;;;6184346;23;19912;-91
2022/06/29 11:04:49;;;;;;;;;;;35.10;28.10;;;;;;6157516;23;19908;-92
2022/06/29 11:12:50;;;;;;;;;;;35.30;28.40;;;;;;6253085;22;19922;-93
2022/06/29 11:15:47;;;;;;;;;;;35.40;28.10;;;;;;6281169;22;19992;-93
2022/06/29 11:18:13;;;;;;;;;;;35.50;27.90;;;;;;6280972;22;19951;-93
2022/06/29 11:20:45;;;;;;;;;;;35.70;27.70;;;;;;6279671;22;19925;-92
2022/06/29 11:23:12;;;;;;;;;;;35.80;27.50;;;;;;6277841;22;19968;-93
2022/06/29 11:25:56;;;;;;;;;;;35.90;27.50;;;;;;6281520;22;19910;-92
2022/06/29 11:28:27;;;;;;;;;;;36.00;27.50;;;;;;6280431;22;20213;-92
2022/06/29 11:31:00;;;;;;;;;;;36.10;27.30;;;;;;6280281;22;19907;-92
2022/06/29 11:33:26;;;;;;;;;;;36.20;27.30;;;;;;6278737;22;19918;-92
2022/06/29 11:35:53;;;;;;;;;;;36.30;27.00;;;;;;6306733;22;20002;-92
2022/06/29 11:38:18;;;;;;;;;;;36.40;26.90;;;;;;6279590;22;19998;-93
2022/06/29 11:40:46;;;;;;;;;;;36.50;26.70;;;;;;6279802;22;19976;-93
2022/06/29 11:43:14;;;;;;;;;;;36.70;26.70;;;;;;6278785;22;19933;-91
2022/06/29 11:45:44;;;;;;;;;;;36.80;26.50;;;;;;6254511;22;19918;-92
2022/06/29 11:48:17;;;;;;;;;;;37.00;26.10;;;;;;6280097;22;19903;-91
2022/06/29 11:50:43;;;;;;;;;;;37.00;25.80;;;;;;6283627;22;19945;-93
2022/06/29 11:53:11;;;;;;;;;;;37.20;25.80;;;;;;6278282;22;20679;-93
2022/06/29 11:55:40;;;;;;;;;;;37.30;25.50;;;;;;6279811;22;19915;-92
2022/06/29 11:58:08;;;;;;;;;;;37.50;25.60;;;;;;6280346;22;19911;-93
2022/06/29 12:00:36;;;;;;;;;;;37.80;25.30;;;;;;6280791;22;19911;-91
2022/06/29 12:03:03;;;;;;;;;;;38.10;25.20;;;;;;6278737;22;19903;-92
2022/06/29 12:05:28;;;;;;;;;;;38.50;24.60;;;;;;6280382;22;19993;-91
2022/06/29 12:08:00;;;;;;;;;;;38.80;24.10;;;;;;6281462;22;20330;-91
2022/06/29 12:10:28;;;;;;;;;;;39.10;23.70;;;;;;6281339;22;19960;-92
2022/06/29 12:12:53;;;;;;;;;;;39.70;23.60;;;;;;6278792;22;19910;-93
2022/06/29 12:15:19;;;;;;;;;;;40.80;22.70;;;;;;6280542;22;19914;-92
2022/06/29 12:17:44;;;;;;;;;;;41.70;21.70;;;;;;6280923;22;19906;-93
2022/06/29 12:20:11;;;;;;;;;;;42.70;21.40;;;;;;6308313;22;19918;-92
2022/06/29 12:22:36;;;;;;;;;;;43.30;20.60;;;;;;6280376;22;20088;-93
2022/06/29 12:25:02;;;;;;;;;;;43.30;20.50;;;;;;6279630;22;19954;-92
2022/06/29 12:27:28;;;;;;;;;;;43.50;19.90;;;;;;6281916;22;19922;-93
2022/06/29 12:29:53;;;;;;;;;;;43.40;19.30;;;;;;6309885;22;20323;-92
2022/06/29 12:32:25;;;;;;;;;;;43.50;19.20;;;;;;6309805;22;19903;-92
2022/06/29 12:34:50;;;;;;;;;;;43.80;18.70;;;;;;6281034;22;19918;-92
2022/06/29 12:37:17;;;;;;;;;;;43.80;18.60;;;;;;6281226;22;20059;-92
2022/06/29 12:39:43;;;;;;;;;;;43.90;18.20;;;;;;6281764;22;19914;-92
2022/06/29 12:42:08;;;;;;;;;;;44.10;17.90;;;;;;6283704;22;19903;-92
2022/06/29 12:44:34;;;;;;;;;;;44.30;17.50;;;;;;6280984;22;19918;-93
2022/06/29 12:46:59;;;;;;;;;;;44.20;17.30;;;;;;6282002;22;20180;-92
2022/06/29 12:49:25;;;;;;;;;;;44.10;17.20;;;;;;6282282;22;19957;-92
2022/06/29 12:51:53;;;;;;;;;;;43.90;17.00;;;;;;6281565;22;19910;-92
2022/06/29 12:54:19;;;;;;;;;;;43.80;17.10;;;;;;6280319;22;19911;-92
2022/06/29 12:57:06;;;;;;;;;;;43.80;17.20;;;;;;6286606;22;20231;-93
2022/06/29 12:59:31;;;;;;;;;;;43.80;16.90;;;;;;6308076;22;20314;-93
2022/06/29 13:01:58;;;;;;;;;;;43.70;17.10;;;;;;6309124;22;19946;-93
2022/06/29 13:04:23;;;;;;;;;;;43.70;17.10;;;;;;6280715;22;19933;-92
2022/06/29 13:06:54;;;;;;;;;;;43.50;17.00;;;;;;6282204;22;19907;-92
2022/06/29 13:09:20;;;;;;;;;;;43.10;17.30;;;;;;6281964;22;19997;-91
2022/06/29 13:11:45;;;;;;;;;;;42.50;17.80;;;;;;6281912;22;20377;-92
2022/06/29 13:14:11;;;;;;;;;;;41.90;18.10;;;;;;6256277;22;19933;-93
2022/06/29 13:16:37;;;;;;;;;;;41.40;18.50;;;;;;6309380;22;19958;-93
2022/06/29 13:19:02;;;;;;;;;;;41.40;18.80;;;;;;6308949;22;19915;-92
2022/06/29 13:21:28;;;;;;;;;;;41.80;18.00;;;;;;6308945;22;20311;-91
2022/06/29 13:23:54;;;;;;;;;;;41.90;17.30;;;;;;6281500;22;20389;-91
2022/06/29 13:26:19;;;;;;;;;;;42.10;17.40;;;;;;6281903;22;19938;-91
2022/06/29 13:28:45;;;;;;;;;;;42.20;17.40;;;;;;6281580;22;19955;-92
2022/06/29 13:31:10;;;;;;;;;;;42.10;17.50;;;;;;6311725;22;19914;-92
2022/06/29 13:33:36;;;;;;;;;;;41.90;18.00;;;;;;6283105;22;19913;-93
2022/06/29 13:36:02;;;;;;;;;;;42.00;18.00;;;;;;6284934;22;19915;-93
2022/06/29 13:38:28;;;;;;;;;;;42.20;17.90;;;;;;6285458;22;20236;-91
2022/06/29 13:41:03;;;;;;;;;;;42.10;18.00;;;;;;6290601;22;19906;-94
2022/06/29 13:43:28;;;;;;;;;;;42.10;18.10;;;;;;6314298;22;19915;-91
2022/06/29 13:45:54;;;;;;;;;;;42.20;17.80;;;;;;6310693;22;19907;-91
2022/06/29 13:51:10;;;;;;;;;;;41.50;18.50;;;;;;6183999;23;19979;-91
2022/06/29 13:53:36;;;;;;;;;;;41.30;18.80;;;;;;6265802;22;20323;-90
2022/06/29 13:56:02;;;;;;;;;;;40.80;18.80;;;;;;6283059;22;19925;-90
2022/06/29 13:58:27;;;;;;;;;;;40.30;19.40;;;;;;6282754;22;19942;-91
2022/06/29 14:00:53;;;;;;;;;;;40.10;19.60;;;;;;6281513;22;19915;-91
2022/06/29 14:03:19;;;;;;;;;;;39.70;19.90;;;;;;6281404;22;19914;-91
2022/06/29 14:05:45;;;;;;;;;;;39.70;20.00;;;;;;6309632;22;19911;-91
2022/06/29 14:08:10;;;;;;;;;;;40.00;19.90;;;;;;6309167;22;19907;-90
2022/06/29 14:10:36;;;;;;;;;;;40.30;19.70;;;;;;6281258;22;19911;-90
2022/06/29 14:13:02;;;;;;;;;;;40.50;19.70;;;;;;6281407;22;19956;-90
2022/06/29 14:15:27;;;;;;;;;;;40.70;19.70;;;;;;6281925;22;19915;-90
2022/06/29 14:17:53;;;;;;;;;;;40.90;19.50;;;;;;6281590;22;19907;-91
2022/06/29 14:20:18;;;;;;;;;;;40.90;19.40;;;;;;6280678;22;20231;-91
2022/06/29 14:22:44;;;;;;;;;;;40.70;19.40;;;;;;6280230;22;19968;-91
2022/06/29 14:25:10;;;;;;;;;;;40.50;19.10;;;;;;6279895;22;19918;-91
2022/06/29 14:27:36;;;;;;;;;;;40.30;19.40;;;;;;6308210;22;19906;-91
2022/06/29 14:30:02;;;;;;;;;;;40.20;19.50;;;;;;6280710;22;19928;-90
2022/06/29 14:32:28;;;;;;;;;;;40.00;19.60;;;;;;6281644;22;19942;-91
2022/06/29 14:34:53;;;;;;;;;;;39.70;19.60;;;;;;6280189;22;19918;-91
2022/06/29 14:37:19;;;;;;;;;;;39.30;19.90;;;;;;6308294;22;19915;-91
2022/06/29 14:39:45;;;;;;;;;;;39.00;20.50;;;;;;6281660;22;20231;-91
2022/06/29 14:42:11;;;;;;;;;;;38.70;20.80;;;;;;6280853;22;19918;-91
2022/06/29 14:44:36;;;;;;;;;;;38.40;21.20;;;;;;6279223;22;20320;-91
2022/06/29 14:47:02;;;;;;;;;;;38.10;21.50;;;;;;6308392;22;19970;-91
2022/06/29 14:49:28;;;;;;;;;;;37.70;21.80;;;;;;6281681;22;19911;-92
2022/06/29 14:51:53;;;;;;;;;;;37.40;22.20;;;;;;6281124;22;19911;-93
2022/06/29 14:54:19;;;;;;;;;;;37.20;22.50;;;;;;6306925;22;19907;-88
2022/06/29 14:56:44;;;;;;;;;;;36.90;22.80;;;;;;6279433;22;20255;-87
2022/06/29 14:59:10;;;;;;;;;;;36.70;23.20;;;;;;6280139;22;19906;-89